sensor_id;sensor_type;location;lat;lon;timestamp;P1;durP1;ratioP1;P2;durP2;ratioP2
4565;SDS011;2295;51.050;14.608;2023-03-26T00:01:30;2.90;;;1.48;;
4565;SDS011;2295;51.050;14.608;2023-03-26T00:04:02;2.72;;;1.50;;
4565;SDS011;2295;51.050;14.608;2023-03-26T00:06:33;5.22;;;1.30;;
4565;SDS011;2295;51.050;14.608;2023-03-26T00:09:06;5.80;;;1.17;;
4565;SDS011;2295;51.050;14.608;2023-03-26T00:11:36;4.32;;;1.30;;
4565;SDS011;2295;51.050;14.608;2023-03-26T00:14:04;2.78;;;1.20;;
4565;SDS011;2295;51.050;14.608;2023-03-26T00:16:34;6.15;;;1.00;;
4565;SDS011;2295;51.050;14.608;2023-03-26T00:19:02;2.78;;;0.80;;
4565;SDS011;2295;51.050;14.608;2023-03-26T00:21:31;0.70;;;0.70;;
4565;SDS011;2295;51.050;14.608;2023-03-26T00:23:59;3.40;;;1.00;;
4565;SDS011;2295;51.050;14.608;2023-03-26T00:26:30;3.55;;;1.00;;
4565;SDS011;2295;51.050;14.608;2023-03-26T00:29:00;4.65;;;1.00;;
4565;SDS011;2295;51.050;14.608;2023-03-26T00:31:29;8.32;;;1.00;;
4565;SDS011;2295;51.050;14.608;2023-03-26T00:33:59;4.95;;;1.17;;
4565;SDS011;2295;51.050;14.608;2023-03-26T00:36:31;6.53;;;1.30;;
4565;SDS011;2295;51.050;14.608;2023-03-26T00:39:02;4.00;;;0.80;;
4565;SDS011;2295;51.050;14.608;2023-03-26T00:41:31;3.30;;;0.90;;
4565;SDS011;2295;51.050;14.608;2023-03-26T00:44:02;4.10;;;1.02;;
4565;SDS011;2295;51.050;14.608;2023-03-26T00:46:31;3.90;;;1.23;;
4565;SDS011;2295;51.050;14.608;2023-03-26T00:49:00;4.68;;;1.00;;
4565;SDS011;2295;51.050;14.608;2023-03-26T00:51:29;2.17;;;1.02;;
4565;SDS011;2295;51.050;14.608;2023-03-26T00:53:59;3.25;;;1.00;;
4565;SDS011;2295;51.050;14.608;2023-03-26T00:56:27;7.68;;;1.55;;
4565;SDS011;2295;51.050;14.608;2023-03-26T00:58:56;3.53;;;1.27;;
4565;SDS011;2295;51.050;14.608;2023-03-26T01:01:26;5.78;;;1.10;;
4565;SDS011;2295;51.050;14.608;2023-03-26T01:03:56;7.53;;;1.65;;
4565;SDS011;2295;51.050;14.608;2023-03-26T01:06:47;3.88;;;1.10;;
4565;SDS011;2295;51.050;14.608;2023-03-26T01:09:17;2.45;;;0.90;;
4565;SDS011;2295;51.050;14.608;2023-03-26T01:11:48;2.75;;;1.10;;
4565;SDS011;2295;51.050;14.608;2023-03-26T01:14:17;1.83;;;1.30;;
4565;SDS011;2295;51.050;14.608;2023-03-26T01:16:48;3.20;;;1.00;;
4565;SDS011;2295;51.050;14.608;2023-03-26T01:19:20;2.25;;;1.17;;
4565;SDS011;2295;51.050;14.608;2023-03-26T01:21:56;5.57;;;1.00;;
4565;SDS011;2295;51.050;14.608;2023-03-26T01:24:26;5.60;;;1.30;;
4565;SDS011;2295;51.050;14.608;2023-03-26T01:29:51;2.95;;;1.30;;
4565;SDS011;2295;51.050;14.608;2023-03-26T01:32:22;3.47;;;1.10;;
4565;SDS011;2295;51.050;14.608;2023-03-26T01:35:04;2.38;;;1.10;;
4565;SDS011;2295;51.050;14.608;2023-03-26T01:37:47;7.23;;;1.10;;
4565;SDS011;2295;51.050;14.608;2023-03-26T01:40:25;4.47;;;1.10;;
4565;SDS011;2295;51.050;14.608;2023-03-26T01:43:05;5.57;;;1.02;;
4565;SDS011;2295;51.050;14.608;2023-03-26T01:45:38;0.88;;;0.82;;
4565;SDS011;2295;51.050;14.608;2023-03-26T01:48:11;7.55;;;1.60;;
4565;SDS011;2295;51.050;14.608;2023-03-26T01:50:40;3.45;;;1.20;;
4565;SDS011;2295;51.050;14.608;2023-03-26T01:53:08;2.85;;;0.90;;
4565;SDS011;2295;51.050;14.608;2023-03-26T01:55:44;5.35;;;1.10;;
4565;SDS011;2295;51.050;14.608;2023-03-26T01:58:24;4.93;;;1.20;;
4565;SDS011;2295;51.050;14.608;2023-03-26T02:01:05;1.65;;;0.90;;
4565;SDS011;2295;51.050;14.608;2023-03-26T02:03:43;3.83;;;1.45;;
4565;SDS011;2295;51.050;14.608;2023-03-26T02:06:18;3.17;;;1.10;;
4565;SDS011;2295;51.050;14.608;2023-03-26T02:08:52;5.72;;;1.00;;
4565;SDS011;2295;51.050;14.608;2023-03-26T02:11:27;1.30;;;1.20;;
4565;SDS011;2295;51.050;14.608;2023-03-26T02:14:02;7.05;;;1.27;;
4565;SDS011;2295;51.050;14.608;2023-03-26T02:16:31;3.55;;;1.27;;
4565;SDS011;2295;51.050;14.608;2023-03-26T02:19:00;2.95;;;1.20;;
4565;SDS011;2295;51.050;14.608;2023-03-26T02:21:29;3.33;;;1.20;;
4565;SDS011;2295;51.050;14.608;2023-03-26T02:23:59;7.20;;;1.40;;
4565;SDS011;2295;51.050;14.608;2023-03-26T02:26:31;3.05;;;1.23;;
4565;SDS011;2295;51.050;14.608;2023-03-26T02:29:03;3.25;;;1.20;;
4565;SDS011;2295;51.050;14.608;2023-03-26T02:31:31;1.17;;;1.08;;
4565;SDS011;2295;51.050;14.608;2023-03-26T02:34:01;1.60;;;1.13;;
4565;SDS011;2295;51.050;14.608;2023-03-26T02:36:29;1.88;;;1.08;;
4565;SDS011;2295;51.050;14.608;2023-03-26T02:38:58;3.67;;;1.60;;
4565;SDS011;2295;51.050;14.608;2023-03-26T02:41:27;2.60;;;1.10;;
4565;SDS011;2295;51.050;14.608;2023-03-26T02:43:57;6.82;;;1.63;;
4565;SDS011;2295;51.050;14.608;2023-03-26T02:46:25;5.28;;;1.08;;
4565;SDS011;2295;51.050;14.608;2023-03-26T02:48:54;1.90;;;0.98;;
4565;SDS011;2295;51.050;14.608;2023-03-26T02:51:22;5.28;;;1.20;;
4565;SDS011;2295;51.050;14.608;2023-03-26T02:53:51;8.35;;;1.13;;
4565;SDS011;2295;51.050;14.608;2023-03-26T02:56:20;1.85;;;1.20;;
4565;SDS011;2295;51.050;14.608;2023-03-26T02:58:48;5.07;;;1.00;;
4565;SDS011;2295;51.050;14.608;2023-03-26T03:01:18;7.05;;;1.10;;
4565;SDS011;2295;51.050;14.608;2023-03-26T03:03:48;3.60;;;1.27;;
4565;SDS011;2295;51.050;14.608;2023-03-26T03:06:16;1.70;;;0.90;;
4565;SDS011;2295;51.050;14.608;2023-03-26T03:08:44;1.10;;;1.00;;
4565;SDS011;2295;51.050;14.608;2023-03-26T03:11:14;1.90;;;1.20;;
4565;SDS011;2295;51.050;14.608;2023-03-26T03:13:43;1.50;;;0.90;;
4565;SDS011;2295;51.050;14.608;2023-03-26T03:16:12;1.70;;;1.00;;
4565;SDS011;2295;51.050;14.608;2023-03-26T03:18:42;2.30;;;1.15;;
4565;SDS011;2295;51.050;14.608;2023-03-26T03:21:10;1.73;;;0.80;;
4565;SDS011;2295;51.050;14.608;2023-03-26T03:23:39;4.38;;;0.98;;
4565;SDS011;2295;51.050;14.608;2023-03-26T03:26:09;3.67;;;1.13;;
4565;SDS011;2295;51.050;14.608;2023-03-26T03:28:41;4.68;;;1.10;;
4565;SDS011;2295;51.050;14.608;2023-03-26T03:31:10;3.05;;;1.00;;
4565;SDS011;2295;51.050;14.608;2023-03-26T03:33:38;2.15;;;1.20;;
4565;SDS011;2295;51.050;14.608;2023-03-26T03:36:10;3.70;;;1.33;;
4565;SDS011;2295;51.050;14.608;2023-03-26T03:38:46;3.15;;;1.25;;
4565;SDS011;2295;51.050;14.608;2023-03-26T03:41:16;1.73;;;1.00;;
4565;SDS011;2295;51.050;14.608;2023-03-26T03:43:44;2.22;;;1.00;;
4565;SDS011;2295;51.050;14.608;2023-03-26T03:46:13;3.08;;;1.20;;
4565;SDS011;2295;51.050;14.608;2023-03-26T03:48:41;1.73;;;0.80;;
4565;SDS011;2295;51.050;14.608;2023-03-26T03:51:16;2.88;;;1.00;;
4565;SDS011;2295;51.050;14.608;2023-03-26T03:53:44;4.72;;;1.02;;
4565;SDS011;2295;51.050;14.608;2023-03-26T03:56:13;2.60;;;1.10;;
4565;SDS011;2295;51.050;14.608;2023-03-26T03:58:44;2.55;;;1.20;;
4565;SDS011;2295;51.050;14.608;2023-03-26T04:01:12;2.35;;;1.00;;
4565;SDS011;2295;51.050;14.608;2023-03-26T04:03:42;2.17;;;0.90;;
4565;SDS011;2295;51.050;14.608;2023-03-26T04:06:12;2.47;;;1.13;;
4565;SDS011;2295;51.050;14.608;2023-03-26T04:08:46;1.10;;;1.00;;
4565;SDS011;2295;51.050;14.608;2023-03-26T04:11:14;0.77;;;0.77;;
4565;SDS011;2295;51.050;14.608;2023-03-26T04:13:42;3.03;;;1.00;;
4565;SDS011;2295;51.050;14.608;2023-03-26T04:16:11;2.28;;;1.00;;
4565;SDS011;2295;51.050;14.608;2023-03-26T04:18:39;2.75;;;1.05;;
4565;SDS011;2295;51.050;14.608;2023-03-26T04:21:08;2.17;;;1.10;;
4565;SDS011;2295;51.050;14.608;2023-03-26T04:23:38;3.95;;;1.25;;
4565;SDS011;2295;51.050;14.608;2023-03-26T04:26:10;2.97;;;0.93;;
4565;SDS011;2295;51.050;14.608;2023-03-26T04:28:42;3.63;;;1.10;;
4565;SDS011;2295;51.050;14.608;2023-03-26T04:31:15;1.45;;;1.10;;
4565;SDS011;2295;51.050;14.608;2023-03-26T04:33:50;1.65;;;1.00;;
4565;SDS011;2295;51.050;14.608;2023-03-26T04:36:21;4.20;;;1.10;;
4565;SDS011;2295;51.050;14.608;2023-03-26T04:38:53;2.08;;;1.00;;
4565;SDS011;2295;51.050;14.608;2023-03-26T04:41:25;4.53;;;1.17;;
4565;SDS011;2295;51.050;14.608;2023-03-26T04:43:54;0.80;;;0.80;;
4565;SDS011;2295;51.050;14.608;2023-03-26T04:46:22;3.08;;;1.05;;
4565;SDS011;2295;51.050;14.608;2023-03-26T04:48:51;3.90;;;1.05;;
4565;SDS011;2295;51.050;14.608;2023-03-26T04:51:22;2.10;;;0.98;;
4565;SDS011;2295;51.050;14.608;2023-03-26T04:53:54;2.95;;;1.00;;
4565;SDS011;2295;51.050;14.608;2023-03-26T04:56:27;2.55;;;1.33;;
4565;SDS011;2295;51.050;14.608;2023-03-26T04:59:12;2.67;;;1.00;;
4565;SDS011;2295;51.050;14.608;2023-03-26T05:01:42;1.80;;;1.00;;
4565;SDS011;2295;51.050;14.608;2023-03-26T05:04:12;2.55;;;1.00;;
4565;SDS011;2295;51.050;14.608;2023-03-26T05:06:40;2.70;;;1.42;;
4565;SDS011;2295;51.050;14.608;2023-03-26T05:09:08;2.05;;;1.10;;
4565;SDS011;2295;51.050;14.608;2023-03-26T05:11:38;4.82;;;1.10;;
4565;SDS011;2295;51.050;14.608;2023-03-26T05:14:07;5.57;;;1.10;;
4565;SDS011;2295;51.050;14.608;2023-03-26T05:16:35;6.63;;;1.10;;
4565;SDS011;2295;51.050;14.608;2023-03-26T05:19:04;3.47;;;1.13;;
4565;SDS011;2295;51.050;14.608;2023-03-26T05:21:34;1.10;;;0.90;;
4565;SDS011;2295;51.050;14.608;2023-03-26T05:24:03;7.00;;;0.90;;
4565;SDS011;2295;51.050;14.608;2023-03-26T05:26:32;1.42;;;0.77;;
4565;SDS011;2295;51.050;14.608;2023-03-26T05:29:02;6.40;;;1.10;;
4565;SDS011;2295;51.050;14.608;2023-03-26T05:31:30;8.35;;;1.25;;
4565;SDS011;2295;51.050;14.608;2023-03-26T05:33:59;4.85;;;1.25;;
4565;SDS011;2295;51.050;14.608;2023-03-26T05:36:27;14.88;;;1.63;;
4565;SDS011;2295;51.050;14.608;2023-03-26T05:38:55;3.92;;;1.40;;
4565;SDS011;2295;51.050;14.608;2023-03-26T05:41:24;3.15;;;1.00;;
4565;SDS011;2295;51.050;14.608;2023-03-26T05:43:53;3.20;;;1.02;;
4565;SDS011;2295;51.050;14.608;2023-03-26T05:46:23;6.97;;;1.30;;
4565;SDS011;2295;51.050;14.608;2023-03-26T05:48:55;5.80;;;0.93;;
4565;SDS011;2295;51.050;14.608;2023-03-26T05:51:23;1.98;;;1.08;;
4565;SDS011;2295;51.050;14.608;2023-03-26T05:53:51;4.35;;;1.40;;
4565;SDS011;2295;51.050;14.608;2023-03-26T05:56:20;6.80;;;1.77;;
4565;SDS011;2295;51.050;14.608;2023-03-26T05:58:48;6.00;;;1.45;;
4565;SDS011;2295;51.050;14.608;2023-03-26T06:01:17;8.52;;;1.90;;
4565;SDS011;2295;51.050;14.608;2023-03-26T06:03:52;8.77;;;1.80;;
4565;SDS011;2295;51.050;14.608;2023-03-26T06:06:20;7.18;;;1.90;;
4565;SDS011;2295;51.050;14.608;2023-03-26T06:08:49;11.05;;;1.50;;
4565;SDS011;2295;51.050;14.608;2023-03-26T06:11:28;3.80;;;1.15;;
4565;SDS011;2295;51.050;14.608;2023-03-26T06:13:57;9.40;;;1.15;;
4565;SDS011;2295;51.050;14.608;2023-03-26T06:16:26;1.30;;;1.00;;
4565;SDS011;2295;51.050;14.608;2023-03-26T06:18:56;6.85;;;1.50;;
4565;SDS011;2295;51.050;14.608;2023-03-26T06:21:24;3.72;;;1.38;;
4565;SDS011;2295;51.050;14.608;2023-03-26T06:23:54;5.97;;;1.80;;
4565;SDS011;2295;51.050;14.608;2023-03-26T06:26:22;5.88;;;1.67;;
4565;SDS011;2295;51.050;14.608;2023-03-26T06:28:51;16.38;;;3.78;;
4565;SDS011;2295;51.050;14.608;2023-03-26T06:31:19;8.63;;;1.45;;
4565;SDS011;2295;51.050;14.608;2023-03-26T06:33:48;4.93;;;1.45;;
4565;SDS011;2295;51.050;14.608;2023-03-26T06:36:18;3.88;;;1.40;;
4565;SDS011;2295;51.050;14.608;2023-03-26T06:38:46;3.67;;;1.38;;
4565;SDS011;2295;51.050;14.608;2023-03-26T06:41:14;2.38;;;1.20;;
4565;SDS011;2295;51.050;14.608;2023-03-26T06:43:43;4.05;;;1.58;;
4565;SDS011;2295;51.050;14.608;2023-03-26T06:46:11;5.57;;;1.15;;
4565;SDS011;2295;51.050;14.608;2023-03-26T06:48:40;4.65;;;1.30;;
4565;SDS011;2295;51.050;14.608;2023-03-26T06:51:12;3.38;;;1.42;;
4565;SDS011;2295;51.050;14.608;2023-03-26T06:53:41;4.50;;;1.38;;
4565;SDS011;2295;51.050;14.608;2023-03-26T06:56:10;4.90;;;1.20;;
4565;SDS011;2295;51.050;14.608;2023-03-26T06:58:41;3.85;;;1.40;;
4565;SDS011;2295;51.050;14.608;2023-03-26T07:01:12;4.95;;;1.55;;
4565;SDS011;2295;51.050;14.608;2023-03-26T07:03:40;4.97;;;1.15;;
4565;SDS011;2295;51.050;14.608;2023-03-26T07:06:09;4.05;;;1.10;;
4565;SDS011;2295;51.050;14.608;2023-03-26T07:08:37;1.65;;;1.00;;
4565;SDS011;2295;51.050;14.608;2023-03-26T07:11:07;1.10;;;1.00;;
4565;SDS011;2295;51.050;14.608;2023-03-26T07:13:38;1.55;;;0.95;;
4565;SDS011;2295;51.050;14.608;2023-03-26T07:16:07;4.63;;;1.25;;
4565;SDS011;2295;51.050;14.608;2023-03-26T07:18:36;8.25;;;1.23;;
4565;SDS011;2295;51.050;14.608;2023-03-26T07:21:05;6.38;;;1.42;;
4565;SDS011;2295;51.050;14.608;2023-03-26T07:23:34;8.48;;;1.83;;
4565;SDS011;2295;51.050;14.608;2023-03-26T07:26:09;5.32;;;1.60;;
4565;SDS011;2295;51.050;14.608;2023-03-26T07:28:46;2.97;;;1.65;;
4565;SDS011;2295;51.050;14.608;2023-03-26T07:31:31;4.28;;;1.30;;
4565;SDS011;2295;51.050;14.608;2023-03-26T07:34:10;2.33;;;1.30;;
4565;SDS011;2295;51.050;14.608;2023-03-26T07:36:49;3.33;;;2.08;;
4565;SDS011;2295;51.050;14.608;2023-03-26T07:39:26;4.15;;;1.30;;
4565;SDS011;2295;51.050;14.608;2023-03-26T07:42:10;7.60;;;2.15;;
4565;SDS011;2295;51.050;14.608;2023-03-26T07:44:50;8.48;;;2.00;;
4565;SDS011;2295;51.050;14.608;2023-03-26T07:47:26;4.00;;;1.80;;
4565;SDS011;2295;51.050;14.608;2023-03-26T07:49:57;9.40;;;1.92;;
4565;SDS011;2295;51.050;14.608;2023-03-26T07:52:25;3.25;;;1.20;;
4565;SDS011;2295;51.050;14.608;2023-03-26T07:54:57;3.45;;;1.63;;
4565;SDS011;2295;51.050;14.608;2023-03-26T07:57:34;3.60;;;2.00;;
4565;SDS011;2295;51.050;14.608;2023-03-26T08:00:13;8.63;;;1.50;;
4565;SDS011;2295;51.050;14.608;2023-03-26T08:05:51;6.18;;;1.50;;
4565;SDS011;2295;51.050;14.608;2023-03-26T08:08:29;5.43;;;1.20;;
4565;SDS011;2295;51.050;14.608;2023-03-26T08:11:07;5.88;;;1.63;;
4565;SDS011;2295;51.050;14.608;2023-03-26T08:13:54;5.93;;;1.40;;
4565;SDS011;2295;51.050;14.608;2023-03-26T08:16:30;3.78;;;1.10;;
4565;SDS011;2295;51.050;14.608;2023-03-26T08:19:09;1.67;;;1.20;;
4565;SDS011;2295;51.050;14.608;2023-03-26T08:21:46;7.05;;;1.83;;
4565;SDS011;2295;51.050;14.608;2023-03-26T08:24:19;2.78;;;1.10;;
4565;SDS011;2295;51.050;14.608;2023-03-26T08:26:52;2.33;;;1.08;;
4565;SDS011;2295;51.050;14.608;2023-03-26T08:29:28;1.90;;;1.15;;
4565;SDS011;2295;51.050;14.608;2023-03-26T08:32:03;6.57;;;3.60;;
4565;SDS011;2295;51.050;14.608;2023-03-26T08:34:35;3.35;;;1.30;;
4565;SDS011;2295;51.050;14.608;2023-03-26T08:37:04;3.25;;;1.27;;
4565;SDS011;2295;51.050;14.608;2023-03-26T08:39:33;6.20;;;1.23;;
4565;SDS011;2295;51.050;14.608;2023-03-26T08:45:13;4.00;;;1.10;;
4565;SDS011;2295;51.050;14.608;2023-03-26T08:51:00;1.55;;;1.00;;
4565;SDS011;2295;51.050;14.608;2023-03-26T08:57:10;4.10;;;1.00;;
4565;SDS011;2295;51.050;14.608;2023-03-26T09:03:05;5.63;;;1.20;;
4565;SDS011;2295;51.050;14.608;2023-03-26T09:06:04;2.60;;;1.30;;
4565;SDS011;2295;51.050;14.608;2023-03-26T09:09:09;5.22;;;1.25;;
4565;SDS011;2295;51.050;14.608;2023-03-26T09:15:15;1.95;;;1.00;;
4565;SDS011;2295;51.050;14.608;2023-03-26T09:18:20;3.88;;;1.05;;
4565;SDS011;2295;51.050;14.608;2023-03-26T09:21:17;1.98;;;1.10;;
4565;SDS011;2295;51.050;14.608;2023-03-26T09:24:09;5.90;;;1.08;;
4565;SDS011;2295;51.050;14.608;2023-03-26T09:27:07;12.40;;;0.90;;
4565;SDS011;2295;51.050;14.608;2023-03-26T09:29:53;2.35;;;0.90;;
4565;SDS011;2295;51.050;14.608;2023-03-26T09:32:54;1.92;;;1.20;;
4565;SDS011;2295;51.050;14.608;2023-03-26T09:35:51;1.52;;;1.25;;
4565;SDS011;2295;51.050;14.608;2023-03-26T09:38:27;2.00;;;1.17;;
4565;SDS011;2295;51.050;14.608;2023-03-26T09:41:15;5.15;;;1.23;;
4565;SDS011;2295;51.050;14.608;2023-03-26T09:43:53;3.20;;;1.33;;
4565;SDS011;2295;51.050;14.608;2023-03-26T09:46:45;3.20;;;1.17;;
4565;SDS011;2295;51.050;14.608;2023-03-26T09:49:28;1.75;;;1.10;;
4565;SDS011;2295;51.050;14.608;2023-03-26T09:55:20;3.28;;;1.20;;
4565;SDS011;2295;51.050;14.608;2023-03-26T09:58:02;0.80;;;0.80;;
4565;SDS011;2295;51.050;14.608;2023-03-26T10:00:52;1.63;;;0.80;;
4565;SDS011;2295;51.050;14.608;2023-03-26T10:03:42;1.35;;;0.85;;
4565;SDS011;2295;51.050;14.608;2023-03-26T10:09:19;1.25;;;0.90;;
4565;SDS011;2295;51.050;14.608;2023-03-26T10:12:08;1.00;;;0.80;;
4565;SDS011;2295;51.050;14.608;2023-03-26T10:14:47;1.05;;;0.80;;
4565;SDS011;2295;51.050;14.608;2023-03-26T10:17:28;1.90;;;0.90;;
4565;SDS011;2295;51.050;14.608;2023-03-26T10:20:14;3.58;;;1.13;;
4565;SDS011;2295;51.050;14.608;2023-03-26T10:22:59;1.60;;;0.77;;
4565;SDS011;2295;51.050;14.608;2023-03-26T10:25:45;1.98;;;0.93;;
4565;SDS011;2295;51.050;14.608;2023-03-26T10:28:41;3.85;;;0.95;;
4565;SDS011;2295;51.050;14.608;2023-03-26T10:31:36;2.33;;;0.80;;
4565;SDS011;2295;51.050;14.608;2023-03-26T10:34:12;0.97;;;0.87;;
4565;SDS011;2295;51.050;14.608;2023-03-26T10:37:03;2.50;;;0.93;;
4565;SDS011;2295;51.050;14.608;2023-03-26T10:39:44;1.55;;;0.98;;
4565;SDS011;2295;51.050;14.608;2023-03-26T10:42:37;2.60;;;1.10;;
4565;SDS011;2295;51.050;14.608;2023-03-26T10:45:19;5.20;;;2.20;;
4565;SDS011;2295;51.050;14.608;2023-03-26T10:48:06;1.75;;;0.98;;
4565;SDS011;2295;51.050;14.608;2023-03-26T10:50:49;1.50;;;1.15;;
4565;SDS011;2295;51.050;14.608;2023-03-26T10:53:29;6.50;;;3.25;;
4565;SDS011;2295;51.050;14.608;2023-03-26T10:56:06;2.58;;;1.48;;
4565;SDS011;2295;51.050;14.608;2023-03-26T10:58:44;1.65;;;0.80;;
4565;SDS011;2295;51.050;14.608;2023-03-26T11:01:18;1.70;;;0.90;;
4565;SDS011;2295;51.050;14.608;2023-03-26T11:03:54;1.43;;;0.90;;
4565;SDS011;2295;51.050;14.608;2023-03-26T11:06:32;3.33;;;1.23;;
4565;SDS011;2295;51.050;14.608;2023-03-26T11:09:12;3.80;;;1.20;;
4565;SDS011;2295;51.050;14.608;2023-03-26T11:11:54;19.75;;;6.55;;
4565;SDS011;2295;51.050;14.608;2023-03-26T11:14:56;3.38;;;1.05;;
4565;SDS011;2295;51.050;14.608;2023-03-26T11:17:39;22.60;;;10.15;;
4565;SDS011;2295;51.050;14.608;2023-03-26T11:20:15;2.55;;;1.00;;
4565;SDS011;2295;51.050;14.608;2023-03-26T11:22:49;2.67;;;1.48;;
4565;SDS011;2295;51.050;14.608;2023-03-26T11:25:28;3.90;;;1.65;;
4565;SDS011;2295;51.050;14.608;2023-03-26T11:28:21;14.45;;;5.30;;
4565;SDS011;2295;51.050;14.608;2023-03-26T11:31:05;5.20;;;1.05;;
4565;SDS011;2295;51.050;14.608;2023-03-26T11:33:44;66.10;;;24.10;;
4565;SDS011;2295;51.050;14.608;2023-03-26T11:36:15;79.03;;;29.20;;
4565;SDS011;2295;51.050;14.608;2023-03-26T11:38:47;25.27;;;11.13;;
4565;SDS011;2295;51.050;14.608;2023-03-26T11:41:19;3.88;;;2.45;;
4565;SDS011;2295;51.050;14.608;2023-03-26T11:43:50;17.83;;;7.30;;
4565;SDS011;2295;51.050;14.608;2023-03-26T11:46:24;13.00;;;4.80;;
4565;SDS011;2295;51.050;14.608;2023-03-26T11:48:54;5.70;;;3.30;;
4565;SDS011;2295;51.050;14.608;2023-03-26T11:51:28;1.87;;;1.00;;
4565;SDS011;2295;51.050;14.608;2023-03-26T11:53:59;3.53;;;0.93;;
4565;SDS011;2295;51.050;14.608;2023-03-26T11:56:29;1.47;;;1.07;;
4565;SDS011;2295;51.050;14.608;2023-03-26T11:59:00;2.03;;;1.00;;
4565;SDS011;2295;51.050;14.608;2023-03-26T12:01:41;11.93;;;4.97;;
4565;SDS011;2295;51.050;14.608;2023-03-26T12:04:16;4.50;;;1.73;;
4565;SDS011;2295;51.050;14.608;2023-03-26T12:06:50;3.40;;;1.17;;
4565;SDS011;2295;51.050;14.608;2023-03-26T12:09:22;1.58;;;0.88;;
4565;SDS011;2295;51.050;14.608;2023-03-26T12:11:51;3.95;;;1.63;;
4565;SDS011;2295;51.050;14.608;2023-03-26T12:14:26;6.00;;;2.72;;
4565;SDS011;2295;51.050;14.608;2023-03-26T12:16:59;3.63;;;1.83;;
4565;SDS011;2295;51.050;14.608;2023-03-26T12:19:34;4.35;;;2.10;;
4565;SDS011;2295;51.050;14.608;2023-03-26T12:22:10;2.13;;;1.00;;
4565;SDS011;2295;51.050;14.608;2023-03-26T12:27:49;2.72;;;1.00;;
4565;SDS011;2295;51.050;14.608;2023-03-26T12:30:25;1.45;;;0.98;;
4565;SDS011;2295;51.050;14.608;2023-03-26T12:32:58;1.00;;;0.90;;
4565;SDS011;2295;51.050;14.608;2023-03-26T12:35:30;1.85;;;1.23;;
4565;SDS011;2295;51.050;14.608;2023-03-26T12:38:13;2.78;;;1.10;;
4565;SDS011;2295;51.050;14.608;2023-03-26T12:40:49;1.90;;;1.00;;
4565;SDS011;2295;51.050;14.608;2023-03-26T12:43:35;2.58;;;1.30;;
4565;SDS011;2295;51.050;14.608;2023-03-26T12:46:27;1.83;;;1.17;;
4565;SDS011;2295;51.050;14.608;2023-03-26T12:49:18;6.57;;;1.30;;
4565;SDS011;2295;51.050;14.608;2023-03-26T12:52:03;6.05;;;1.95;;
4565;SDS011;2295;51.050;14.608;2023-03-26T12:54:41;39.13;;;10.20;;
4565;SDS011;2295;51.050;14.608;2023-03-26T12:57:19;11.23;;;4.28;;
4565;SDS011;2295;51.050;14.608;2023-03-26T12:59:56;3.15;;;1.27;;
4565;SDS011;2295;51.050;14.608;2023-03-26T13:05:35;2.70;;;1.20;;
4565;SDS011;2295;51.050;14.608;2023-03-26T13:08:32;1.90;;;1.40;;
4565;SDS011;2295;51.050;14.608;2023-03-26T13:11:15;27.00;;;9.30;;
4565;SDS011;2295;51.050;14.608;2023-03-26T13:14:08;31.38;;;10.07;;
4565;SDS011;2295;51.050;14.608;2023-03-26T13:16:50;34.95;;;12.05;;
4565;SDS011;2295;51.050;14.608;2023-03-26T13:19:24;7.10;;;3.05;;
4565;SDS011;2295;51.050;14.608;2023-03-26T13:22:00;11.77;;;4.50;;
4565;SDS011;2295;51.050;14.608;2023-03-26T13:24:39;14.00;;;6.47;;
4565;SDS011;2295;51.050;14.608;2023-03-26T13:27:19;22.65;;;9.13;;
4565;SDS011;2295;51.050;14.608;2023-03-26T13:30:02;58.65;;;21.60;;
4565;SDS011;2295;51.050;14.608;2023-03-26T13:32:43;20.08;;;7.53;;
4565;SDS011;2295;51.050;14.608;2023-03-26T13:35:26;40.47;;;13.98;;
4565;SDS011;2295;51.050;14.608;2023-03-26T13:38:02;10.85;;;3.83;;
4565;SDS011;2295;51.050;14.608;2023-03-26T13:40:40;34.80;;;11.30;;
4565;SDS011;2295;51.050;14.608;2023-03-26T13:43:25;69.43;;;24.73;;
4565;SDS011;2295;51.050;14.608;2023-03-26T13:46:05;59.83;;;22.20;;
4565;SDS011;2295;51.050;14.608;2023-03-26T13:48:41;127.80;;;48.85;;
4565;SDS011;2295;51.050;14.608;2023-03-26T13:51:16;24.63;;;7.85;;
4565;SDS011;2295;51.050;14.608;2023-03-26T13:53:51;52.50;;;17.08;;
4565;SDS011;2295;51.050;14.608;2023-03-26T13:56:24;15.20;;;6.05;;
4565;SDS011;2295;51.050;14.608;2023-03-26T13:58:58;4.03;;;2.05;;
4565;SDS011;2295;51.050;14.608;2023-03-26T14:01:30;36.08;;;14.40;;
4565;SDS011;2295;51.050;14.608;2023-03-26T14:04:07;6.50;;;3.13;;
4565;SDS011;2295;51.050;14.608;2023-03-26T14:06:47;47.75;;;16.50;;
4565;SDS011;2295;51.050;14.608;2023-03-26T14:09:26;11.63;;;4.70;;
4565;SDS011;2295;51.050;14.608;2023-03-26T14:12:07;5.45;;;2.47;;
4565;SDS011;2295;51.050;14.608;2023-03-26T14:14:51;3.45;;;1.77;;
4565;SDS011;2295;51.050;14.608;2023-03-26T14:17:24;4.75;;;2.50;;
4565;SDS011;2295;51.050;14.608;2023-03-26T14:29:34;14.85;;;4.35;;
4565;SDS011;2295;51.050;14.608;2023-03-26T14:32:31;26.70;;;6.85;;
4565;SDS011;2295;51.050;14.608;2023-03-26T14:35:25;18.88;;;5.25;;
4565;SDS011;2295;51.050;14.608;2023-03-26T14:38:05;22.33;;;5.55;;
4565;SDS011;2295;51.050;14.608;2023-03-26T14:47:15;34.50;;;6.15;;
4565;SDS011;2295;51.050;14.608;2023-03-26T14:53:02;10.75;;;3.05;;
4565;SDS011;2295;51.050;14.608;2023-03-26T14:55:50;7.78;;;2.85;;
4565;SDS011;2295;51.050;14.608;2023-03-26T14:58:53;25.75;;;5.30;;
4565;SDS011;2295;51.050;14.608;2023-03-26T15:02:01;7.80;;;3.28;;
4565;SDS011;2295;51.050;14.608;2023-03-26T15:08:16;20.98;;;10.68;;
4565;SDS011;2295;51.050;14.608;2023-03-26T15:11:24;27.38;;;7.45;;
4565;SDS011;2295;51.050;14.608;2023-03-26T15:14:09;36.70;;;16.75;;
4565;SDS011;2295;51.050;14.608;2023-03-26T15:17:09;69.68;;;28.55;;
4565;SDS011;2295;51.050;14.608;2023-03-26T15:23:12;26.40;;;14.45;;
4565;SDS011;2295;51.050;14.608;2023-03-26T15:29:41;72.13;;;15.25;;
4565;SDS011;2295;51.050;14.608;2023-03-26T15:32:52;27.70;;;8.10;;
4565;SDS011;2295;51.050;14.608;2023-03-26T15:35:49;7.50;;;4.20;;
4565;SDS011;2295;51.050;14.608;2023-03-26T15:41:49;39.80;;;10.10;;
4565;SDS011;2295;51.050;14.608;2023-03-26T15:44:28;10.15;;;4.53;;
4565;SDS011;2295;51.050;14.608;2023-03-26T15:47:35;26.17;;;6.72;;
4565;SDS011;2295;51.050;14.608;2023-03-26T15:53:18;13.52;;;5.13;;
4565;SDS011;2295;51.050;14.608;2023-03-26T15:55:59;19.23;;;6.50;;
4565;SDS011;2295;51.050;14.608;2023-03-26T15:58:41;19.38;;;5.30;;
4565;SDS011;2295;51.050;14.608;2023-03-26T16:01:18;20.75;;;7.00;;
4565;SDS011;2295;51.050;14.608;2023-03-26T16:04:03;29.75;;;8.73;;
4565;SDS011;2295;51.050;14.608;2023-03-26T16:06:48;23.73;;;8.43;;
4565;SDS011;2295;51.050;14.608;2023-03-26T16:09:30;22.58;;;8.40;;
4565;SDS011;2295;51.050;14.608;2023-03-26T16:15:13;35.17;;;10.25;;
4565;SDS011;2295;51.050;14.608;2023-03-26T16:20:54;21.90;;;5.93;;
4565;SDS011;2295;51.050;14.608;2023-03-26T16:23:33;8.65;;;5.30;;
4565;SDS011;2295;51.050;14.608;2023-03-26T16:26:20;54.85;;;12.45;;
4565;SDS011;2295;51.050;14.608;2023-03-26T16:29:03;25.00;;;7.35;;
4565;SDS011;2295;51.050;14.608;2023-03-26T16:34:41;48.08;;;10.68;;
4565;SDS011;2295;51.050;14.608;2023-03-26T16:46:41;29.17;;;9.57;;
4565;SDS011;2295;51.050;14.608;2023-03-26T16:49:19;63.40;;;14.52;;
4565;SDS011;2295;51.050;14.608;2023-03-26T16:52:03;90.18;;;21.58;;
4565;SDS011;2295;51.050;14.608;2023-03-26T16:54:49;61.83;;;21.88;;
4565;SDS011;2295;51.050;14.608;2023-03-26T16:57:25;32.17;;;11.10;;
4565;SDS011;2295;51.050;14.608;2023-03-26T17:02:55;107.70;;;28.97;;
4565;SDS011;2295;51.050;14.608;2023-03-26T17:05:34;54.53;;;17.45;;
4565;SDS011;2295;51.050;14.608;2023-03-26T17:08:10;41.58;;;12.77;;
4565;SDS011;2295;51.050;14.608;2023-03-26T17:11:02;57.72;;;17.83;;
4565;SDS011;2295;51.050;14.608;2023-03-26T17:13:40;29.23;;;10.77;;
4565;SDS011;2295;51.050;14.608;2023-03-26T17:16:16;24.30;;;9.23;;
4565;SDS011;2295;51.050;14.608;2023-03-26T17:18:50;25.70;;;9.63;;
4565;SDS011;2295;51.050;14.608;2023-03-26T17:21:30;46.85;;;14.10;;
4565;SDS011;2295;51.050;14.608;2023-03-26T17:24:14;70.65;;;21.48;;